Time;durP1;ratioP1;P1;durP2;ratioP2;P2;SDS_P1;SDS_P2;PMS_P1;PMS_P2;Temp;Humidity;BMP_temperature;BMP_pressure;BME280_temperature;BME280_humidity;BME280_pressure;Samples;Min_cycle;Max_cycle;Signal;HPM_P1;HPM_P2
2020/12/15 00:02:07;;;;;;;;;;;;;;;20.16;40.26;100979.06;5097734;28;752;-52
2020/12/15 00:04:33;;;;;;;;;;;;;;;20.12;40.53;100991.84;5097808;28;843;-53
2020/12/15 00:06:58;;;;;;;;;;;;;;;20.92;38.61;101003.34;5097261;28;953;-54
2020/12/15 00:09:24;;;;;;;;;;;;;;;21.02;38.18;101009.53;5097460;28;787;-53
2020/12/15 00:11:49;;;;;;;;;;;;;;;20.65;39.34;101010.28;5097767;28;744;-54
2020/12/15 00:14:14;;;;;;;;;;;;;;;20.24;40.01;101006.06;5097800;28;736;-52
2020/12/15 00:16:40;;;;;;;;;;;;;;;19.88;40.82;101008.34;5097434;28;2232;-53
2020/12/15 00:19:05;;;;;;;;;;;;;;;20.09;40.55;101004.28;5097748;28;1119;-53
2020/12/15 00:21:31;;;;;;;;;;;;;;;20.81;38.90;101013.72;5097117;28;946;-54
2020/12/15 00:23:57;;;;;;;;;;;;;;;20.76;38.93;101011.00;5097286;28;808;-53
2020/12/15 00:26:23;;;;;;;;;;;;;;;20.57;39.44;101022.81;5097734;28;747;-53
2020/12/15 00:28:49;;;;;;;;;;;;;;;20.32;39.83;101015.66;5096863;28;759;-54
2020/12/15 00:31:14;;;;;;;;;;;;;;;19.77;41.29;101027.75;5113594;28;1110;-54
2020/12/15 00:33:40;;;;;;;;;;;;;;;20.73;39.24;101022.66;5117603;28;779;-54
2020/12/15 00:36:05;;;;;;;;;;;;;;;20.64;39.01;101039.03;5104293;28;1909;-53
2020/12/15 00:38:31;;;;;;;;;;;;;;;20.61;39.37;101034.09;5097157;28;487;-53
2020/12/15 00:40:56;;;;;;;;;;;;;;;20.41;39.67;101033.22;5097026;28;739;-54
2020/12/15 00:43:22;;;;;;;;;;;;;;;19.86;41.03;101032.66;5096951;28;751;-54
2020/12/15 00:45:47;;;;;;;;;;;;;;;20.70;38.90;101046.16;5097364;28;816;-52
2020/12/15 00:48:16;;;;;;;;;;;;;;;20.69;39.12;101044.50;5096926;28;832;-54
2020/12/15 00:50:41;;;;;;;;;;;;;;;20.67;39.13;101041.22;5096271;28;1016;-54
2020/12/15 00:53:07;;;;;;;;;;;;;;;20.29;39.83;101032.81;5096907;28;787;-54
2020/12/15 00:55:32;;;;;;;;;;;;;;;19.79;40.96;101044.00;5097228;28;1913;-54
2020/12/15 00:57:58;;;;;;;;;;;;;;;20.48;39.69;101035.63;5096411;28;763;-54
2020/12/15 01:00:24;;;;;;;;;;;;;;;21.12;38.07;101040.94;5095864;28;1113;-54
2020/12/15 01:02:49;;;;;;;;;;;;;;;20.74;39.08;101052.75;5095964;28;1164;-53
2020/12/15 01:05:15;;;;;;;;;;;;;;;20.63;39.21;101048.44;5095987;28;1036;-55
2020/12/15 01:07:42;;;;;;;;;;;;;;;20.04;40.42;101051.25;5095794;28;1489;-54
2020/12/15 01:10:08;;;;;;;;;;;;;;;19.93;40.88;101035.91;5096660;28;824;-55
2020/12/15 01:12:37;;;;;;;;;;;;;;;20.72;39.04;101038.41;5095362;28;1109;-53
2020/12/15 01:15:06;;;;;;;;;;;;;;;20.54;39.37;101034.47;5095997;28;1905;-52
2020/12/15 01:17:32;;;;;;;;;;;;;;;20.36;39.68;101041.56;5095538;28;1153;-53
2020/12/15 01:19:57;;;;;;;;;;;;;;;20.13;40.09;101040.41;5096178;28;1023;-55
2020/12/15 01:22:22;;;;;;;;;;;;;;;19.76;40.78;101048.16;5096669;28;787;-51
2020/12/15 01:24:49;;;;;;;;;;;;;;;20.47;39.38;101039.53;5096557;28;774;-52
2020/12/15 01:27:31;;;;;;;;;;;;;;;21.23;37.90;101055.44;5094889;28;1225;-55
2020/12/15 01:30:03;;;;;;;;;;;;;;;20.72;38.97;101065.22;5101538;28;1157;-56
2020/12/15 01:32:46;;;;;;;;;;;;;;;20.51;39.26;101051.63;5116751;28;597;-56
2020/12/15 01:35:13;;;;;;;;;;;;;;;19.94;40.63;101051.38;5109706;28;1913;-56
2020/12/15 01:37:40;;;;;;;;;;;;;;;20.05;40.56;101063.13;5095171;28;1353;-56
2020/12/15 01:40:09;;;;;;;;;;;;;;;20.90;38.76;101067.22;5095233;28;1173;-56
2020/12/15 01:42:35;;;;;;;;;;;;;;;20.89;38.69;101065.56;5095144;28;1184;-56
2020/12/15 01:45:00;;;;;;;;;;;;;;;20.70;38.98;101065.50;5096517;28;814;-57
2020/12/15 01:47:29;;;;;;;;;;;;;;;20.12;39.90;101063.63;5095511;28;1173;-55
2020/12/15 01:49:55;;;;;;;;;;;;;;;19.80;40.69;101065.81;5096127;28;957;-55
2020/12/15 01:52:21;;;;;;;;;;;;;;;20.61;39.29;101072.78;5095400;28;1339;-56
2020/12/15 01:54:51;;;;;;;;;;;;;;;21.01;38.29;101087.25;5082005;28;1286;-56
2020/12/15 01:57:26;;;;;;;;;;;;;;;20.62;38.94;101093.75;5099170;28;1991;-54
2020/12/15 02:00:01;;;;;;;;;;;;;;;20.72;38.75;101092.84;5100098;28;775;-55
2020/12/15 02:02:41;;;;;;;;;;;;;;;20.19;39.92;101100.00;5100169;28;633;-55
2020/12/15 02:05:09;;;;;;;;;;;;;;;20.38;39.93;101104.78;5098586;28;1149;-56
2020/12/15 02:07:34;;;;;;;;;;;;;;;21.07;38.27;101101.81;5098913;28;1404;-55
2020/12/15 02:10:00;;;;;;;;;;;;;;;20.67;38.84;101107.53;5100539;28;788;-55
2020/12/15 02:12:44;;;;;;;;;;;;;;;20.54;39.18;101094.38;5099712;28;610;-54
2020/12/15 02:15:14;;;;;;;;;;;;;;;19.93;40.57;101088.34;5098658;28;1906;-56
2020/12/15 02:17:46;;;;;;;;;;;;;;;20.46;39.57;101099.44;5082673;28;1256;-54
2020/12/15 02:20:19;;;;;;;;;;;;;;;21.03;38.16;101098.84;5098048;28;1228;-55
2020/12/15 02:22:59;;;;;;;;;;;;;;;20.70;38.82;101095.09;5098606;28;1141;-55
2020/12/15 02:25:27;;;;;;;;;;;;;;;20.47;39.23;101098.34;5098195;28;1407;-55
2020/12/15 02:27:53;;;;;;;;;;;;;;;20.01;40.35;101104.28;5099618;28;751;-52
2020/12/15 02:30:18;;;;;;;;;;;;;;;20.47;39.41;101098.34;5106919;28;1156;-55
2020/12/15 02:32:47;;;;;;;;;;;;;;;21.04;38.13;101094.94;5118484;28;1521;-54
2020/12/15 02:35:15;;;;;;;;;;;;;;;20.66;38.99;101101.19;5112725;28;1913;-55
2020/12/15 02:37:43;;;;;;;;;;;;;;;20.60;39.03;101096.00;5098038;28;1535;-53
2020/12/15 02:40:09;;;;;;;;;;;;;;;20.34;39.67;101099.00;5099227;28;743;-57
2020/12/15 02:42:51;;;;;;;;;;;;;;;19.91;40.54;101099.69;5098679;28;1208;-53
2020/12/15 02:45:21;;;;;;;;;;;;;;;20.70;39.12;101106.16;5098200;28;2010;-54
2020/12/15 02:47:47;;;;;;;;;;;;;;;21.12;37.78;101101.75;5097966;28;1133;-52
2020/12/15 02:50:16;;;;;;;;;;;;;;;20.72;38.84;101114.94;5099069;28;957;-52
2020/12/15 02:52:42;;;;;;;;;;;;;;;20.74;38.67;101119.06;5081349;28;1386;-55
2020/12/15 02:55:07;;;;;;;;;;;;;;;20.26;39.67;101108.78;5099098;28;1977;-57
2020/12/15 02:57:39;;;;;;;;;;;;;;;20.16;39.96;101115.22;5098052;28;1189;-55
2020/12/15 03:00:09;;;;;;;;;;;;;;;20.91;38.60;101126.88;5098112;28;1340;-56
2020/12/15 03:02:39;;;;;;;;;;;;;;;21.01;38.28;101117.66;5098704;28;825;-55
2020/12/15 03:05:05;;;;;;;;;;;;;;;20.71;38.86;101116.09;5097507;28;956;-54
2020/12/15 03:07:32;;;;;;;;;;;;;;;20.55;39.13;101109.84;5097905;28;1248;-56
2020/12/15 03:09:59;;;;;;;;;;;;;;;20.36;39.33;101113.38;5081039;28;1335;-54
2020/12/15 03:12:34;;;;;;;;;;;;;;;20.16;39.91;101098.63;5097413;28;1508;-55
2020/12/15 03:15:00;;;;;;;;;;;;;;;20.90;38.36;101110.59;5097873;28;1322;-57
2020/12/15 03:17:28;;;;;;;;;;;;;;;20.60;38.76;101118.09;5080752;28;1978;-55
2020/12/15 03:19:56;;;;;;;;;;;;;;;20.60;39.09;101124.44;5097017;28;1244;-55
2020/12/15 03:22:21;;;;;;;;;;;;;;;20.22;39.60;101137.25;5097729;28;1303;-54
2020/12/15 03:24:53;;;;;;;;;;;;;;;20.06;40.35;101131.03;5097064;28;1137;-54
2020/12/15 03:27:23;;;;;;;;;;;;;;;20.87;38.31;101136.06;5097605;28;1267;-55
2020/12/15 03:29:48;;;;;;;;;;;;;;;20.62;39.03;101137.97;5101686;28;1248;-55
2020/12/15 03:32:14;;;;;;;;;;;;;;;20.60;38.89;101140.22;5117323;28;1207;-54
2020/12/15 03:34:40;;;;;;;;;;;;;;;20.46;39.08;101134.53;5116652;28;1008;-55
2020/12/15 03:37:07;;;;;;;;;;;;;;;19.85;40.63;101133.94;5097105;28;1966;-54
2020/12/15 03:39:41;;;;;;;;;;;;;;;20.58;38.95;101137.75;5096755;28;1326;-57
2020/12/15 03:42:19;;;;;;;;;;;;;;;20.88;38.44;101135.78;5097267;28;1362;-55
2020/12/15 03:44:46;;;;;;;;;;;;;;;20.63;38.90;101134.91;5096993;28;1192;-55
2020/12/15 03:47:14;;;;;;;;;;;;;;;20.45;39.32;101130.13;5096599;28;1161;-55
2020/12/15 03:49:40;;;;;;;;;;;;;;;20.11;40.06;101131.00;5096974;28;1129;-55
2020/12/15 03:52:07;;;;;;;;;;;;;;;19.91;40.24;101135.56;5096630;28;1248;-54
2020/12/15 03:54:32;;;;;;;;;;;;;;;20.82;38.34;101140.53;5098078;28;854;-55
2020/12/15 03:57:16;;;;;;;;;;;;;;;20.84;38.29;101146.59;5097890;28;1965;-55
2020/12/15 04:00:03;;;;;;;;;;;;;;;20.74;38.59;101134.84;5097383;28;1079;-54
2020/12/15 04:02:37;;;;;;;;;;;;;;;20.48;39.15;101141.44;5096490;28;680;-55
2020/12/15 04:05:05;;;;;;;;;;;;;;;19.77;40.58;101159.38;5096430;28;1479;-59
2020/12/15 04:07:31;;;;;;;;;;;;;;;20.13;40.13;101153.59;5097787;28;822;-56
2020/12/15 04:09:56;;;;;;;;;;;;;;;20.90;38.29;101155.69;5096472;28;1144;-52
2020/12/15 04:12:22;;;;;;;;;;;;;;;20.61;38.75;101159.25;5096417;28;1382;-45
2020/12/15 04:14:49;;;;;;;;;;;;;;;20.45;39.68;101150.28;5096424;28;1252;-50
2020/12/15 04:17:15;;;;;;;;;;;;;;;20.15;40.39;101157.72;5095728;28;1975;-45
2020/12/15 04:19:44;;;;;;;;;;;;;;;19.91;41.00;101165.06;5096208;28;1390;-45
2020/12/15 04:22:09;;;;;;;;;;;;;;;20.75;39.15;101162.19;5097529;28;811;-50
2020/12/15 04:24:44;;;;;;;;;;;;;;;20.92;38.73;101170.00;5095869;28;1326;-50
2020/12/15 04:27:10;;;;;;;;;;;;;;;20.65;39.14;101176.06;5096351;28;1264;-49
2020/12/15 04:29:35;;;;;;;;;;;;;;;20.26;39.94;101168.66;5098596;28;1281;-48
2020/12/15 04:32:08;;;;;;;;;;;;;;;20.02;40.52;101180.47;5116476;28;1183;-51
2020/12/15 04:34:48;;;;;;;;;;;;;;;19.89;40.79;101189.41;5114023;28;1207;-51
2020/12/15 04:37:14;;;;;;;;;;;;;;;20.76;38.93;101188.72;5095826;28;1989;-52
2020/12/15 04:39:49;;;;;;;;;;;;;;;20.83;38.59;101189.19;5095679;28;1406;-52
2020/12/15 04:42:16;;;;;;;;;;;;;;;20.64;39.06;101191.81;5096131;28;1201;-47
2020/12/15 04:44:43;;;;;;;;;;;;;;;20.33;39.70;101180.25;5096184;28;1275;-53
2020/12/15 04:47:17;;;;;;;;;;;;;;;19.87;40.59;101175.88;5095769;28;1301;-50
2020/12/15 04:50:09;;;;;;;;;;;;;;;20.62;39.12;101162.81;5095337;28;1367;-47
2020/12/15 04:52:51;;;;;;;;;;;;;;;20.89;38.62;101165.06;5096305;28;1145;-55
2020/12/15 04:55:24;;;;;;;;;;;;;;;20.55;39.26;101167.88;5095545;28;1980;-51
2020/12/15 04:57:50;;;;;;;;;;;;;;;20.31;39.53;101172.25;5096058;28;1173;-53
2020/12/15 05:00:16;;;;;;;;;;;;;;;19.87;40.66;101170.38;5079140;28;1250;-54
2020/12/15 05:03:02;;;;;;;;;;;;;;;20.59;39.23;101166.19;5096498;28;1410;-53
2020/12/15 05:05:28;;;;;;;;;;;;;;;20.98;38.18;101152.22;5096254;28;965;-47
2020/12/15 05:07:58;;;;;;;;;;;;;;;20.32;39.56;101162.00;5095758;28;1188;-53
2020/12/15 05:10:50;;;;;;;;;;;;;;;20.08;40.03;101171.03;5092456;28;1106;-51
2020/12/15 05:13:27;;;;;;;;;;;;;;;19.35;41.59;101172.56;5095770;28;1307;-53
2020/12/15 05:15:56;;;;;;;;;;;;;;;20.08;40.22;101165.50;5095326;28;1917;-53
2020/12/15 05:18:45;;;;;;;;;;;;;;;20.61;39.11;101169.50;5087910;28;1568;-50
2020/12/15 05:21:19;;;;;;;;;;;;;;;20.40;39.39;101169.69;5096594;28;1107;-54
2020/12/15 05:23:54;;;;;;;;;;;;;;;20.08;39.79;101161.94;5095357;28;1180;-55
2020/12/15 05:26:25;;;;;;;;;;;;;;;19.54;41.28;101186.50;5095332;28;1271;-54
2020/12/15 05:29:19;;;;;;;;;;;;;;;19.84;40.48;101198.53;5097326;28;1307;-53
2020/12/15 05:32:06;;;;;;;;;;;;;;;20.60;38.77;101195.47;5078869;28;1233;-54
2020/12/15 05:35:07;;;;;;;;;;;;;;;20.22;39.80;101207.09;5069059;28;1094;-55
2020/12/15 05:37:51;;;;;;;;;;;;;;;19.91;40.37;101203.72;5100364;28;593;-54
2020/12/15 05:40:38;;;;;;;;;;;;;;;19.53;41.25;101208.88;5100307;28;1188;-55
2020/12/15 05:43:38;;;;;;;;;;;;;;;20.51;39.13;101218.19;5099616;28;1160;-55
2020/12/15 05:46:03;;;;;;;;;;;;;;;20.38;39.28;101216.06;5082031;28;1364;-57
2020/12/15 05:48:30;;;;;;;;;;;;;;;20.29;39.61;101209.53;5082528;28;1205;-57
2020/12/15 05:50:56;;;;;;;;;;;;;;;19.85;40.31;101210.38;5098589;28;1024;-49
2020/12/15 05:53:21;;;;;;;;;;;;;;;19.46;41.17;101218.28;5099830;28;768;-52
2020/12/15 05:55:47;;;;;;;;;;;;;;;19.93;40.31;101224.41;5100642;28;1917;-56
2020/12/15 05:58:14;;;;;;;;;;;;;;;20.76;38.43;101238.47;5100616;28;831;-55
2020/12/15 06:00:40;;;;;;;;;;;;;;;21.26;37.45;101245.69;5099701;28;739;-49
2020/12/15 06:03:05;;;;;;;;;;;;;;;20.73;38.59;101255.59;5100281;28;859;-57
2020/12/15 06:05:31;;;;;;;;;;;;;;;20.52;39.06;101264.06;5099870;28;1024;-57
2020/12/15 06:07:57;;;;;;;;;;;;;;;20.15;39.91;101268.16;5099538;28;755;-57
2020/12/15 06:10:23;;;;;;;;;;;;;;;19.68;40.72;101263.97;5100193;28;763;-56
2020/12/15 06:12:49;;;;;;;;;;;;;;;19.52;41.16;101270.66;5100023;28;839;-56
2020/12/15 06:15:15;;;;;;;;;;;;;;;20.16;39.90;101274.50;5099374;28;1909;-52
2020/12/15 06:17:40;;;;;;;;;;;;;;;20.51;39.07;101287.25;5100105;28;807;-57
2020/12/15 06:20:06;;;;;;;;;;;;;;;20.13;39.85;101289.72;5098329;28;1228;-54
2020/12/15 06:22:32;;;;;;;;;;;;;;;20.16;39.55;101291.06;5098574;28;1254;-57
2020/12/15 06:24:58;;;;;;;;;;;;;;;19.58;41.11;101288.84;5098023;28;894;-56
2020/12/15 06:27:29;;;;;;;;;;;;;;;19.57;40.95;101292.72;5097595;28;909;-53
2020/12/15 06:29:55;;;;;;;;;;;;;;;20.45;39.22;101296.66;5098506;28;849;-48
2020/12/15 06:32:21;;;;;;;;;;;;;;;20.24;39.42;101295.19;5098786;28;901;-51
2020/12/15 06:34:46;;;;;;;;;;;;;;;20.15;39.52;101290.25;5098928;28;961;-54
2020/12/15 06:37:13;;;;;;;;;;;;;;;19.67;40.68;101314.75;5098698;28;1985;-53
2020/12/15 06:39:38;;;;;;;;;;;;;;;19.36;41.27;101319.53;5098876;28;874;-54
2020/12/15 06:42:06;;;;;;;;;;;;;;;20.35;39.34;101310.56;5097763;28;1317;-58
2020/12/15 06:44:32;;;;;;;;;;;;;;;20.69;38.57;101315.31;5098879;28;803;-54
2020/12/15 06:47:01;;;;;;;;;;;;;;;20.17;39.95;101321.19;5098983;28;814;-55
2020/12/15 06:49:27;;;;;;;;;;;;;;;20.27;39.69;101336.88;5098882;28;795;-52
2020/12/15 06:51:56;;;;;;;;;;;;;;;19.40;41.38;101339.94;5098357;28;969;-54
2020/12/15 06:54:24;;;;;;;;;;;;;;;19.92;40.30;101355.25;5098820;28;799;-50
2020/12/15 06:57:00;;;;;;;;;;;;;;;20.72;38.56;101353.47;5098365;28;1985;-58
2020/12/15 06:59:28;;;;;;;;;;;;;;;20.24;39.48;101351.22;5098495;28;819;-46
2020/12/15 07:02:04;;;;;;;;;;;;;;;20.06;40.07;101366.50;5098518;28;898;-48
2020/12/15 07:04:29;;;;;;;;;;;;;;;19.58;41.09;101374.38;5097357;28;1105;-46
2020/12/15 07:07:03;;;;;;;;;;;;;;;19.47;41.25;101385.44;5096794;28;962;-46
2020/12/15 07:09:29;;;;;;;;;;;;;;;20.38;39.35;101381.81;5098462;28;843;-57
2020/12/15 07:11:55;;;;;;;;;;;;;;;20.36;39.38;101392.31;5098427;28;735;-46
2020/12/15 07:14:20;;;;;;;;;;;;;;;20.22;39.40;101394.06;5098207;28;803;-45
2020/12/15 07:16:46;;;;;;;;;;;;;;;19.81;40.21;101393.09;5098245;28;1913;-53
2020/12/15 07:19:12;;;;;;;;;;;;;;;19.20;41.60;101401.44;5097886;28;1008;-48
2020/12/15 07:21:37;;;;;;;;;;;;;;;20.16;39.95;101404.28;5096601;28;1005;-46
2020/12/15 07:24:02;;;;;;;;;;;;;;;20.71;38.64;101406.25;5098158;28;763;-52
2020/12/15 07:26:28;;;;;;;;;;;;;;;20.27;39.54;101413.34;5098106;28;787;-56
2020/12/15 07:28:53;;;;;;;;;;;;;;;20.14;39.39;101412.84;5096749;28;772;-50
2020/12/15 07:31:25;;;;;;;;;;;;;;;19.57;40.79;101401.13;5114814;28;1093;-55
2020/12/15 07:33:51;;;;;;;;;;;;;;;19.80;40.74;101410.75;5118551;28;763;-56
2020/12/15 07:36:16;;;;;;;;;;;;;;;20.59;38.82;101403.78;5103416;28;1914;-46
2020/12/15 07:38:43;;;;;;;;;;;;;;;20.44;38.90;101401.94;5097684;28;759;-54
2020/12/15 07:41:15;;;;;;;;;;;;;;;20.18;39.60;101405.66;5097987;28;760;-46
2020/12/15 07:43:50;;;;;;;;;;;;;;;19.71;40.54;101406.88;5097968;28;791;-56
2020/12/15 07:46:16;;;;;;;;;;;;;;;19.60;41.07;101408.84;5097607;28;847;-54
2020/12/15 07:48:42;;;;;;;;;;;;;;;20.45;39.34;101404.41;5097753;28;814;-51
2020/12/15 07:51:07;;;;;;;;;;;;;;;20.24;39.67;101403.69;5096433;28;968;-47
2020/12/15 07:53:32;;;;;;;;;;;;;;;20.07;40.10;101397.69;5097426;28;815;-55
2020/12/15 07:56:04;;;;;;;;;;;;;;;19.79;40.43;101411.00;5097565;28;1984;-54
2020/12/15 07:58:29;;;;;;;;;;;;;;;19.44;41.11;101410.78;5095730;28;949;-55
2020/12/15 08:00:55;;;;;;;;;;;;;;;20.26;39.70;101418.06;5097428;28;767;-45
2020/12/15 08:03:21;;;;;;;;;;;;;;;20.71;38.49;101423.66;5097533;28;795;-57
2020/12/15 08:05:46;;;;;;;;;;;;;;;20.25;39.47;101432.16;5096799;28;1060;-49
2020/12/15 08:08:12;;;;;;;;;;;;;;;20.11;39.89;101437.44;5097465;28;775;-52
2020/12/15 08:10:37;;;;;;;;;;;;;;;19.53;41.13;101435.06;5096157;28;811;-47
2020/12/15 08:13:03;;;;;;;;;;;;;;;19.43;41.53;101439.50;5097258;28;530;-53
2020/12/15 08:15:29;;;;;;;;;;;;;;;20.39;39.21;101441.47;5095977;28;1913;-55
2020/12/15 08:17:54;;;;;;;;;;;;;;;20.47;39.01;101446.41;5097460;28;763;-49
2020/12/15 08:20:26;;;;;;;;;;;;;;;20.26;39.48;101444.81;5096669;28;1027;-51
2020/12/15 08:23:02;;;;;;;;;;;;;;;19.92;39.89;101440.81;5095614;28;732;-53
2020/12/15 08:25:27;;;;;;;;;;;;;;;19.35;41.38;101445.56;5097179;28;748;-55
2020/12/15 08:27:53;;;;;;;;;;;;;;;19.94;40.10;101432.25;5095396;28;895;-54
2020/12/15 08:30:19;;;;;;;;;;;;;;;20.68;38.81;101441.63;5105042;28;1165;-55
2020/12/15 08:32:45;;;;;;;;;;;;;;;20.35;39.32;101435.66;5117367;28;835;-48
2020/12/15 08:35:11;;;;;;;;;;;;;;;20.14;39.83;101421.13;5112334;28;953;-49
2020/12/15 08:37:37;;;;;;;;;;;;;;;19.73;40.59;101431.44;5096455;28;1968;-56
2020/12/15 08:40:03;;;;;;;;;;;;;;;19.48;41.03;101431.19;5097151;28;809;-53
2020/12/15 08:42:29;;;;;;;;;;;;;;;20.29;39.42;101427.72;5096604;28;767;-51
2020/12/15 08:44:54;;;;;;;;;;;;;;;20.83;38.26;101429.66;5095059;28;860;-55
2020/12/15 08:47:20;;;;;;;;;;;;;;;20.38;39.05;101431.53;5096638;28;854;-55
2020/12/15 08:49:45;;;;;;;;;;;;;;;20.22;39.65;101428.00;5096288;28;957;-46
2020/12/15 08:52:12;;;;;;;;;;;;;;;19.66;40.54;101431.75;5096358;28;783;-53
2020/12/15 08:54:41;;;;;;;;;;;;;;;19.26;41.64;101438.94;5096564;28;791;-55
2020/12/15 08:57:13;;;;;;;;;;;;;;;19.60;41.16;101438.34;5096293;28;1914;-54
2020/12/15 08:59:38;;;;;;;;;;;;;;;20.53;38.95;101449.97;5096674;28;767;-51
2020/12/15 09:02:04;;;;;;;;;;;;;;;20.24;39.38;101447.88;5096810;28;775;-50
2020/12/15 09:04:29;;;;;;;;;;;;;;;20.05;39.85;101455.13;5096521;28;782;-55
2020/12/15 09:06:55;;;;;;;;;;;;;;;19.56;40.73;101459.31;5096290;28;945;-48
2020/12/15 09:09:28;;;;;;;;;;;;;;;19.10;42.14;101455.47;5095217;28;835;-52
2020/12/15 09:11:55;;;;;;;;;;;;;;;20.16;39.68;101465.88;5096864;28;755;-55
2020/12/15 09:14:20;;;;;;;;;;;;;;;20.46;39.11;101461.31;5094428;28;889;-52
2020/12/15 09:16:45;;;;;;;;;;;;;;;20.33;39.29;101456.41;5096510;28;1913;-52
2020/12/15 09:19:15;;;;;;;;;;;;;;;19.83;40.37;101453.53;5095965;28;1008;-51
2020/12/15 09:21:40;;;;;;;;;;;;;;;19.30;41.29;101446.38;5095788;28;953;-45
2020/12/15 09:24:07;;;;;;;;;;;;;;;19.37;41.43;101437.00;5096162;28;763;-53
2020/12/15 09:26:34;;;;;;;;;;;;;;;20.34;39.33;101435.97;5096025;28;835;-46
2020/12/15 09:29:07;;;;;;;;;;;;;;;20.64;38.65;101434.97;5096337;28;811;-53
2020/12/15 09:31:33;;;;;;;;;;;;;;;20.28;39.20;101431.56;5114901;28;1200;-52
2020/12/15 09:33:58;;;;;;;;;;;;;;;19.97;40.07;101432.50;5116526;28;739;-54
2020/12/15 09:36:23;;;;;;;;;;;;;;;19.38;41.17;101431.22;5100626;28;1977;-48
2020/12/15 09:38:49;;;;;;;;;;;;;;;19.91;40.36;101424.50;5096037;28;784;-54
2020/12/15 09:41:14;;;;;;;;;;;;;;;20.74;38.58;101419.50;5096363;28;737;-52
2020/12/15 09:43:40;;;;;;;;;;;;;;;20.28;39.52;101426.06;5095835;28;887;-56
2020/12/15 09:46:05;;;;;;;;;;;;;;;20.15;39.65;101416.44;5095934;28;847;-50
2020/12/15 09:48:31;;;;;;;;;;;;;;;19.73;40.57;101425.94;5096208;28;744;-50
2020/12/15 09:50:58;;;;;;;;;;;;;;;19.35;41.47;101419.91;5095476;28;1012;-47
2020/12/15 09:53:24;;;;;;;;;;;;;;;20.40;39.06;101418.28;5095842;28;743;-48
2020/12/15 09:55:49;;;;;;;;;;;;;;;20.52;38.71;101416.00;5095859;28;1913;-52
2020/12/15 09:58:14;;;;;;;;;;;;;;;20.22;39.45;101410.63;5095985;28;744;-48
2020/12/15 10:00:40;;;;;;;;;;;;;;;20.17;39.52;101409.53;5095691;28;739;-48
2020/12/15 10:03:06;;;;;;;;;;;;;;;19.63;40.75;101410.22;5095901;28;732;-56
2020/12/15 10:05:31;;;;;;;;;;;;;;;20.12;39.55;101401.28;5095386;28;1017;-55
2020/12/15 10:07:56;;;;;;;;;;;;;;;20.48;38.56;101398.34;5095542;28;848;-53
2020/12/15 10:10:25;;;;;;;;;;;;;;;20.31;39.45;101397.88;5095863;28;795;-58
2020/12/15 10:12:51;;;;;;;;;;;;;;;20.04;39.75;101399.09;5095467;28;834;-49
2020/12/15 10:15:17;;;;;;;;;;;;;;;19.52;40.81;101380.97;5097858;28;807;-56
2020/12/15 10:17:43;;;;;;;;;;;;;;;20.04;40.00;101382.53;5099680;28;1906;-50
2020/12/15 10:20:15;;;;;;;;;;;;;;;20.69;38.51;101365.06;5098778;28;1149;-47
2020/12/15 10:22:41;;;;;;;;;;;;;;;20.17;39.44;101373.66;5099251;28;811;-55
2020/12/15 10:25:07;;;;;;;;;;;;;;;20.26;39.26;101370.25;5099457;28;767;-46
2020/12/15 10:27:32;;;;;;;;;;;;;;;19.65;40.47;101380.41;5099097;28;747;-53
2020/12/15 10:29:57;;;;;;;;;;;;;;;19.19;41.79;101381.31;5101187;28;1097;-45
2020/12/15 10:32:24;;;;;;;;;;;;;;;20.30;39.17;101372.19;5099271;28;819;-49
2020/12/15 10:34:51;;;;;;;;;;;;;;;20.25;39.38;101376.91;5098778;28;1008;-56
2020/12/15 10:37:16;;;;;;;;;;;;;;;20.23;39.21;101379.13;5098826;28;1914;-47
2020/12/15 10:39:42;;;;;;;;;;;;;;;19.82;40.22;101364.41;5099742;28;781;-54
2020/12/15 10:42:07;;;;;;;;;;;;;;;19.40;40.98;101362.81;5098702;28;830;-55
2020/12/15 10:44:33;;;;;;;;;;;;;;;20.05;39.71;101355.72;5098956;28;854;-55
2020/12/15 10:46:59;;;;;;;;;;;;;;;20.47;38.65;101360.75;5098940;28;863;-54
2020/12/15 10:49:24;;;;;;;;;;;;;;;20.03;39.56;101369.81;5098904;28;783;-46
2020/12/15 10:51:50;;;;;;;;;;;;;;;20.17;39.34;101370.88;5098624;28;949;-54
2020/12/15 10:54:16;;;;;;;;;;;;;;;19.46;40.95;101366.38;5103322;28;831;-51
2020/12/15 10:56:41;;;;;;;;;;;;;;;20.08;39.90;101380.03;5115446;28;1905;-55
2020/12/15 10:59:07;;;;;;;;;;;;;;;20.63;38.54;101367.00;5098728;28;842;-54
2020/12/15 11:01:32;;;;;;;;;;;;;;;20.21;39.30;101359.25;5098790;28;874;-53
2020/12/15 11:03:58;;;;;;;;;;;;;;;20.13;39.43;101368.94;5096874;28;1500;-54
2020/12/15 11:06:25;;;;;;;;;;;;;;;19.61;40.65;101357.25;5098372;28;1008;-56
2020/12/15 11:08:50;;;;;;;;;;;;;;;19.90;39.98;101349.19;5098581;28;834;-48
2020/12/15 11:11:16;;;;;;;;;;;;;;;20.61;38.42;101363.72;5098135;28;849;-54
2020/12/15 11:13:41;;;;;;;;;;;;;;;20.20;39.27;101346.56;5098583;28;743;-48
2020/12/15 11:16:07;;;;;;;;;;;;;;;20.10;39.55;101362.06;5098663;28;1910;-57
2020/12/15 11:18:32;;;;;;;;;;;;;;;19.48;41.04;101362.25;5096598;28;995;-56
2020/12/15 11:20:57;;;;;;;;;;;;;;;19.70;40.60;101355.56;5098273;28;961;-56
2020/12/15 11:23:23;;;;;;;;;;;;;;;20.49;38.82;101361.28;5098438;28;771;-56
2020/12/15 11:25:49;;;;;;;;;;;;;;;20.13;39.38;101349.63;5096887;28;807;-59
2020/12/15 11:28:15;;;;;;;;;;;;;;;20.15;39.66;101348.25;5098696;28;812;-48
2020/12/15 11:30:41;;;;;;;;;;;;;;;19.72;40.40;101358.88;5105027;28;1157;-57
2020/12/15 11:33:06;;;;;;;;;;;;;;;19.68;40.50;101352.25;5097780;28;836;-49
2020/12/15 11:35:33;;;;;;;;;;;;;;;20.53;38.62;101372.59;5089845;28;1988;-47
2020/12/15 11:37:59;;;;;;;;;;;;;;;20.23;39.15;101371.69;5078020;28;803;-57
2020/12/15 11:40:26;;;;;;;;;;;;;;;20.08;39.46;101361.53;5077561;28;871;-57
2020/12/15 11:42:53;;;;;;;;;;;;;;;19.61;40.51;101373.81;5078245;28;796;-58
2020/12/15 11:45:18;;;;;;;;;;;;;;;19.30;41.53;101379.38;5077471;28;803;-58
2020/12/15 11:47:44;;;;;;;;;;;;;;;20.04;39.70;101371.47;5077724;28;792;-57
2020/12/15 11:50:09;;;;;;;;;;;;;;;20.78;38.42;101379.94;5082346;28;961;-59
2020/12/15 11:52:36;;;;;;;;;;;;;;;20.34;38.93;101370.50;5097413;28;755;-58
2020/12/15 11:55:01;;;;;;;;;;;;;;;20.21;39.14;101375.84;5097744;28;918;-58
2020/12/15 11:57:27;;;;;;;;;;;;;;;19.88;40.10;101378.16;5097258;28;1913;-58
2020/12/15 11:59:52;;;;;;;;;;;;;;;19.18;41.68;101367.81;5097498;28;838;-54
2020/12/15 12:02:18;;;;;;;;;;;;;;;20.12;39.55;101356.28;5097929;28;525;-61
2020/12/15 12:04:43;;;;;;;;;;;;;;;20.57;38.72;101375.63;5096967;28;973;-57
2020/12/15 12:07:09;;;;;;;;;;;;;;;20.32;38.95;101364.44;5097557;28;720;-55
2020/12/15 12:09:35;;;;;;;;;;;;;;;20.07;39.54;101367.34;5097545;28;759;-53
2020/12/15 12:12:00;;;;;;;;;;;;;;;19.51;40.82;101374.66;5097381;28;758;-60
2020/12/15 12:14:26;;;;;;;;;;;;;;;19.73;40.40;101382.59;5097221;28;862;-53
2020/12/15 12:16:51;;;;;;;;;;;;;;;20.63;38.54;101391.88;5097236;28;1914;-56
2020/12/15 12:19:16;;;;;;;;;;;;;;;20.48;38.77;101384.53;5096711;28;1020;-48
2020/12/15 12:21:42;;;;;;;;;;;;;;;20.35;39.04;101396.19;5097196;28;992;-52
2020/12/15 12:24:07;;;;;;;;;;;;;;;19.86;40.04;101391.44;5097250;28;835;-48
2020/12/15 12:26:33;;;;;;;;;;;;;;;19.36;41.27;101385.72;5096513;28;811;-55
2020/12/15 12:28:59;;;;;;;;;;;;;;;20.06;39.67;101393.28;5097140;28;799;-53
2020/12/15 12:31:25;;;;;;;;;;;;;;;20.67;38.53;101400.44;5114911;28;1200;-54
2020/12/15 12:33:50;;;;;;;;;;;;;;;21.18;37.37;101396.47;5116930;28;818;-55
2020/12/15 12:36:15;;;;;;;;;;;;;;;20.66;38.29;101404.28;5103080;28;1914;-58
2020/12/15 12:38:41;;;;;;;;;;;;;;;20.41;38.86;101413.56;5096583;28;851;-57
2020/12/15 12:41:06;;;;;;;;;;;;;;;20.07;39.68;101411.50;5096417;28;755;-58
2020/12/15 12:43:32;;;;;;;;;;;;;;;19.48;41.00;101419.34;5096897;28;815;-57
2020/12/15 12:45:57;;;;;;;;;;;;;;;19.27;41.45;101415.78;5096739;28;800;-58
2020/12/15 12:48:22;;;;;;;;;;;;;;;20.29;39.43;101419.44;5096524;28;815;-55
2020/12/15 12:50:48;;;;;;;;;;;;;;;20.46;38.89;101414.34;5096387;28;965;-56
2020/12/15 12:53:13;;;;;;;;;;;;;;;20.32;39.07;101424.38;5096856;28;783;-55
2020/12/15 12:55:39;;;;;;;;;;;;;;;20.09;39.66;101429.44;5096574;28;1890;-57
2020/12/15 12:58:05;;;;;;;;;;;;;;;19.53;40.74;101437.81;5096568;28;767;-56